Time,TemperatureF,DewpointF,PressureIn,WindDirection,WindDirectionDegrees,WindSpeedMPH,WindSpeedGustMPH,Humidity,HourlyPrecipIn,Conditions,Clouds,dailyrainin,SolarRadiationWatts/m^2,SoftwareType,DateUTC
2013-05-05 00:00:00,58.0,43.0,-100.00,NNW,337,0.0,-999.0,56,-99.99,,,-99.99,1.160000,,2013-05-05 04:00:00,
2013-05-05 00:43:00,58.0,43.0,-100.00,NNW,337,0.0,-999.0,56,-99.99,,,-99.99,1.160000,,2013-05-05 04:43:00,
2013-05-05 00:53:00,58.0,43.0,-100.00,NNW,337,0.0,-999.0,56,-99.99,,,-99.99,1.160000,,2013-05-05 04:53:00,
2013-05-05 01:00:00,56.0,41.0,-100.00,NW,315,1.0,-999.0,56,-99.99,,,-99.99,1.160000,,2013-05-05 05:00:00,
2013-05-05 01:42:00,56.0,41.0,-100.00,NW,315,1.0,-999.0,56,-99.99,,,-99.99,1.160000,,2013-05-05 05:42:00,
2013-05-05 01:52:00,56.0,41.0,-100.00,NW,315,1.0,-999.0,56,-99.99,,,-99.99,1.160000,,2013-05-05 05:52:00,
2013-05-05 02:00:00,57.0,40.0,-100.00,NW,315,1.0,-999.0,52,-99.99,,,-99.99,1.160000,,2013-05-05 06:00:00,
2013-05-05 02:42:00,57.0,40.0,-100.00,NW,315,1.0,-999.0,52,-99.99,,,-99.99,1.160000,,2013-05-05 06:42:00,
2013-05-05 02:52:00,57.0,40.0,-100.00,NW,315,1.0,-999.0,52,-99.99,,,-99.99,1.160000,,2013-05-05 06:52:00,
2013-05-05 03:00:00,57.0,40.0,-100.00,NW,315,1.0,-999.0,53,-99.99,,,-99.99,1.160000,,2013-05-05 07:00:00,
2013-05-05 03:42:00,57.0,40.0,-100.00,NW,315,1.0,-999.0,53,-99.99,,,-99.99,1.160000,,2013-05-05 07:42:00,
2013-05-05 03:52:00,57.0,40.0,-100.00,NW,315,1.0,-999.0,53,-99.99,,,-99.99,1.160000,,2013-05-05 07:52:00,
2013-05-05 04:00:00,55.0,40.0,-100.00,NW,315,0.0,-999.0,55,-99.99,,,-99.99,1.160000,,2013-05-05 08:00:00,
2013-05-05 04:42:00,55.0,40.0,-100.00,NW,315,0.0,-999.0,55,-99.99,,,-99.99,1.160000,,2013-05-05 08:42:00,
2013-05-05 04:53:00,55.0,40.0,-100.00,NW,315,0.0,-999.0,55,-99.99,,,-99.99,1.160000,,2013-05-05 08:53:00,
2013-05-05 05:00:00,54.0,40.0,-100.00,NW,315,0.0,-999.0,58,-99.99,,,-99.99,1.160000,,2013-05-05 09:00:00,
2013-05-05 05:42:00,54.0,40.0,-100.00,NW,315,0.0,-999.0,58,-99.99,,,-99.99,1.160000,,2013-05-05 09:42:00,
2013-05-05 05:52:00,54.0,40.0,-100.00,NW,315,0.0,-999.0,58,-99.99,,,-99.99,1.160000,,2013-05-05 09:52:00,
2013-05-05 06:00:00,54.0,40.0,-100.00,NW,315,0.0,-999.0,58,-99.99,,,-99.99,1.160000,,2013-05-05 10:00:00,
2013-05-05 06:42:00,54.0,40.0,-100.00,NW,315,0.0,-999.0,58,-99.99,,,-99.99,1.160000,,2013-05-05 10:42:00,
2013-05-05 06:53:00,54.0,40.0,-100.00,NW,315,0.0,-999.0,58,-99.99,,,-99.99,1.160000,,2013-05-05 10:53:00,
2013-05-05 07:00:00,52.0,40.0,-100.00,NW,315,0.0,-999.0,62,-99.99,,,-99.99,4.640000,,2013-05-05 11:00:00,
2013-05-05 07:42:00,52.0,40.0,-100.00,NW,315,0.0,-999.0,62,-99.99,,,-99.99,4.640000,,2013-05-05 11:42:00,
2013-05-05 07:52:00,52.0,40.0,-100.00,NW,315,0.0,-999.0,62,-99.99,,,-99.99,4.640000,,2013-05-05 11:52:00,
2013-05-05 09:00:00,60.0,41.0,-100.00,WNW,292,2.0,-999.0,48,-99.99,,,-99.99,220.399994,,2013-05-05 13:00:00,
2013-05-05 09:42:00,60.0,41.0,-100.00,WNW,292,2.0,-999.0,48,-99.99,,,-99.99,220.399994,,2013-05-05 13:42:00,
2013-05-05 09:52:00,60.0,41.0,-100.00,WNW,292,2.0,-999.0,48,-99.99,,,-99.99,220.399994,,2013-05-05 13:52:00,
2013-05-05 10:00:00,63.0,41.0,-100.00,NW,315,4.0,-999.0,45,-99.99,,,-99.99,331.760010,,2013-05-05 14:00:00,
2013-05-05 10:42:00,63.0,41.0,-100.00,NW,315,4.0,-999.0,45,-99.99,,,-99.99,331.760010,,2013-05-05 14:42:00,
2013-05-05 10:52:00,63.0,41.0,-100.00,NW,315,4.0,-999.0,45,-99.99,,,-99.99,331.760010,,2013-05-05 14:52:00,
2013-05-05 11:00:00,65.0,42.0,-100.00,NW,315,4.0,-999.0,43,-99.99,,,-99.99,435.000000,,2013-05-05 15:00:00,
2013-05-05 11:43:00,65.0,42.0,-100.00,NW,315,4.0,-999.0,43,-99.99,,,-99.99,435.000000,,2013-05-05 15:43:00,
2013-05-05 11:53:00,65.0,42.0,-100.00,NW,315,4.0,-999.0,43,-99.99,,,-99.99,435.000000,,2013-05-05 15:53:00,
2013-05-05 12:00:00,67.0,42.0,-100.00,WNW,292,5.0,-999.0,40,-99.99,,,-99.99,549.840027,,2013-05-05 16:00:00,
2013-05-05 12:42:00,67.0,42.0,-100.00,WNW,292,5.0,-999.0,40,-99.99,,,-99.99,549.840027,,2013-05-05 16:42:00,
2013-05-05 12:53:00,67.0,42.0,-100.00,WNW,292,5.0,-999.0,40,-99.99,,,-99.99,549.840027,,2013-05-05 16:53:00,
2013-05-05 13:00:00,70.0,42.0,-100.00,WSW,247,5.0,-999.0,36,-99.99,,,-99.99,627.559998,,2013-05-05 17:00:00,
2013-05-05 13:42:00,70.0,42.0,-100.00,WSW,247,5.0,-999.0,36,-99.99,,,-99.99,627.559998,,2013-05-05 17:42:00,
2013-05-05 13:52:00,70.0,42.0,-100.00,WSW,247,5.0,-999.0,36,-99.99,,,-99.99,627.559998,,2013-05-05 17:52:00,
2013-05-05 14:00:00,72.0,40.0,-100.00,SW,225,6.0,-999.0,32,-99.99,,,-99.99,684.400024,,2013-05-05 18:00:00,
2013-05-05 14:42:00,72.0,40.0,-100.00,SW,225,6.0,-999.0,32,-99.99,,,-99.99,684.400024,,2013-05-05 18:42:00,
2013-05-05 14:52:00,72.0,40.0,-100.00,SW,225,6.0,-999.0,32,-99.99,,,-99.99,684.400024,,2013-05-05 18:52:00,
2013-05-05 16:00:00,75.0,37.0,-100.00,NE,45,6.0,-999.0,25,-99.99,,,-99.99,606.679993,,2013-05-05 20:00:00,
2013-05-05 16:42:00,75.0,37.0,-100.00,NE,45,6.0,-999.0,25,-99.99,,,-99.99,606.679993,,2013-05-05 20:42:00,
2013-05-05 16:52:00,75.0,37.0,-100.00,NE,45,6.0,-999.0,25,-99.99,,,-99.99,606.679993,,2013-05-05 20:52:00,
2013-05-05 18:00:00,76.0,35.0,-100.00,SW,225,6.0,-999.0,22,-99.99,,,-99.99,397.880005,,2013-05-05 22:00:00,
2013-05-05 18:42:00,76.0,35.0,-100.00,SW,225,6.0,-999.0,22,-99.99,,,-99.99,397.880005,,2013-05-05 22:42:00,
2013-05-05 18:52:00,76.0,35.0,-100.00,SW,225,6.0,-999.0,22,-99.99,,,-99.99,397.880005,,2013-05-05 22:52:00,
2013-05-05 19:00:00,74.0,33.0,-100.00,SSE,157,5.0,-999.0,22,-99.99,,,-99.99,175.160004,,2013-05-05 23:00:00,
2013-05-05 19:42:00,74.0,33.0,-100.00,SSE,157,5.0,-999.0,22,-99.99,,,-99.99,175.160004,,2013-05-05 23:42:00,
2013-05-05 19:52:00,74.0,33.0,-100.00,SSE,157,5.0,-999.0,22,-99.99,,,-99.99,175.160004,,2013-05-05 23:52:00,
2013-05-05 21:00:00,70.0,32.0,-100.00,SSE,157,2.0,-999.0,24,-99.99,,,-99.99,25.520000,,2013-05-06 01:00:00,
2013-05-05 21:42:00,70.0,32.0,-100.00,SSE,157,2.0,-999.0,24,-99.99,,,-99.99,25.520000,,2013-05-06 01:42:00,
2013-05-05 21:52:00,70.0,32.0,-100.00,SSE,157,2.0,-999.0,24,-99.99,,,-99.99,25.520000,,2013-05-06 01:52:00,
2013-05-05 22:00:00,63.0,35.0,-100.00,SSE,157,0.0,-999.0,34,-99.99,,,-99.99,1.160000,,2013-05-06 02:00:00,
2013-05-05 22:42:00,63.0,35.0,-100.00,SSE,157,0.0,-999.0,34,-99.99,,,-99.99,1.160000,,2013-05-06 02:42:00,
2013-05-05 22:52:00,63.0,35.0,-100.00,SSE,157,0.0,-999.0,34,-99.99,,,-99.99,1.160000,,2013-05-06 02:52:00,
2013-05-05 23:00:00,61.0,35.0,-100.00,SSE,157,1.0,-999.0,37,-99.99,,,-99.99,1.160000,,2013-05-06 03:00:00,
2013-05-05 23:42:00,61.0,35.0,-100.00,SSE,157,1.0,-999.0,37,-99.99,,,-99.99,1.160000,,2013-05-06 03:42:00,
2013-05-05 23:52:00,61.0,35.0,-100.00,SSE,157,1.0,-999.0,37,-99.99,,,-99.99,1.160000,,2013-05-06 03:52:00,